sensor_id;sensor_type;location;lat;lon;timestamp;pressure;altitude;pressure_sealevel;temperature;humidity
250;BME280;109;19.806;-70.704;2023-02-12T00:01:57;101665.25;;;22.63;66.17
250;BME280;109;19.806;-70.704;2023-02-12T00:04:24;101668.75;;;22.65;66.15
250;BME280;109;19.806;-70.704;2023-02-12T00:06:50;101661.88;;;22.58;66.11
250;BME280;109;19.806;-70.704;2023-02-12T00:09:17;101675.13;;;22.61;66.16
250;BME280;109;19.806;-70.704;2023-02-12T00:11:43;101668.81;;;22.64;66.27
250;BME280;109;19.806;-70.704;2023-02-12T00:14:09;101686.31;;;22.74;66.32
250;BME280;109;19.806;-70.704;2023-02-12T00:16:36;101690.13;;;22.65;66.70
250;BME280;109;19.806;-70.704;2023-02-12T00:19:02;101676.69;;;22.69;66.49
250;BME280;109;19.806;-70.704;2023-02-12T00:21:29;101689.28;;;22.63;66.41
250;BME280;109;19.806;-70.704;2023-02-12T00:23:56;101692.97;;;22.59;66.57
250;BME280;109;19.806;-70.704;2023-02-12T00:26:23;101697.44;;;22.59;66.03
250;BME280;109;19.806;-70.704;2023-02-12T00:28:50;101699.19;;;22.60;66.42
250;BME280;109;19.806;-70.704;2023-02-12T00:31:22;101701.09;;;22.55;66.14
250;BME280;109;19.806;-70.704;2023-02-12T00:33:51;101694.78;;;22.59;66.24
250;BME280;109;19.806;-70.704;2023-02-12T00:36:22;101699.22;;;22.58;66.43
250;BME280;109;19.806;-70.704;2023-02-12T00:38:51;101705.56;;;22.54;66.41
250;BME280;109;19.806;-70.704;2023-02-12T00:41:18;101704.56;;;22.58;66.68
250;BME280;109;19.806;-70.704;2023-02-12T00:43:52;101704.69;;;22.54;66.20
250;BME280;109;19.806;-70.704;2023-02-12T00:46:19;101712.84;;;22.49;66.57
250;BME280;109;19.806;-70.704;2023-02-12T00:48:52;101713.03;;;22.43;66.06
250;BME280;109;19.806;-70.704;2023-02-12T00:51:19;101718.44;;;22.40;66.24
250;BME280;109;19.806;-70.704;2023-02-12T00:53:52;101712.16;;;22.43;66.12
250;BME280;109;19.806;-70.704;2023-02-12T00:56:19;101713.84;;;22.45;66.05
250;BME280;109;19.806;-70.704;2023-02-12T00:58:52;101716.81;;;22.35;66.00
250;BME280;109;19.806;-70.704;2023-02-12T01:01:18;101718.56;;;22.36;65.65
250;BME280;109;19.806;-70.704;2023-02-12T01:03:52;101713.41;;;22.28;65.89
250;BME280;109;19.806;-70.704;2023-02-12T01:06:18;101726.59;;;22.34;65.50
250;BME280;109;19.806;-70.704;2023-02-12T01:08:52;101728.50;;;22.29;65.90
250;BME280;109;19.806;-70.704;2023-02-12T01:11:19;101724.09;;;22.28;66.10
250;BME280;109;19.806;-70.704;2023-02-12T01:13:52;101731.25;;;22.26;66.05
250;BME280;109;19.806;-70.704;2023-02-12T01:16:21;101737.41;;;22.28;66.01
250;BME280;109;19.806;-70.704;2023-02-12T01:18:55;101735.63;;;22.28;66.10
250;BME280;109;19.806;-70.704;2023-02-12T01:21:24;101734.03;;;22.23;66.02
250;BME280;109;19.806;-70.704;2023-02-12T01:23:58;101732.50;;;22.13;66.39
250;BME280;109;19.806;-70.704;2023-02-12T01:26:26;101731.63;;;22.12;66.09
250;BME280;109;19.806;-70.704;2023-02-12T01:29:02;101732.50;;;22.13;66.19
250;BME280;109;19.806;-70.704;2023-02-12T01:31:31;101728.00;;;22.15;66.49
250;BME280;109;19.806;-70.704;2023-02-12T01:34:12;101735.13;;;22.14;66.29
250;BME280;109;19.806;-70.704;2023-02-12T01:36:53;101732.63;;;22.10;66.21
250;BME280;109;19.806;-70.704;2023-02-12T01:39:19;101737.84;;;22.13;66.67
250;BME280;109;19.806;-70.704;2023-02-12T01:41:59;101730.81;;;22.10;66.42
250;BME280;109;19.806;-70.704;2023-02-12T01:44:28;101724.75;;;22.04;66.32
250;BME280;109;19.806;-70.704;2023-02-12T01:47:16;101734.59;;;22.02;66.84
250;BME280;109;19.806;-70.704;2023-02-12T01:49:50;101738.09;;;22.04;66.86
250;BME280;109;19.806;-70.704;2023-02-12T01:52:33;101744.59;;;21.93;66.88
250;BME280;109;19.806;-70.704;2023-02-12T01:55:22;101739.22;;;21.95;67.00
250;BME280;109;19.806;-70.704;2023-02-12T01:57:56;101736.63;;;21.92;66.66
250;BME280;109;19.806;-70.704;2023-02-12T02:00:36;101737.31;;;21.99;66.94
250;BME280;109;19.806;-70.704;2023-02-12T02:03:03;101731.16;;;21.98;66.84
250;BME280;109;19.806;-70.704;2023-02-12T02:05:45;101739.91;;;22.02;66.97
250;BME280;109;19.806;-70.704;2023-02-12T02:08:20;101748.16;;;21.92;67.06
250;BME280;109;19.806;-70.704;2023-02-12T02:11:02;101741.94;;;21.93;67.11
250;BME280;109;19.806;-70.704;2023-02-12T02:13:59;101741.84;;;21.97;67.34
250;BME280;109;19.806;-70.704;2023-02-12T02:20:22;101744.66;;;21.90;67.17
250;BME280;109;19.806;-70.704;2023-02-12T02:33:42;101758.91;;;21.89;67.21
250;BME280;109;19.806;-70.704;2023-02-12T02:36:34;101769.78;;;21.82;67.46
250;BME280;109;19.806;-70.704;2023-02-12T02:39:28;101772.25;;;21.88;67.64
250;BME280;109;19.806;-70.704;2023-02-12T02:47:59;101776.72;;;21.87;67.80
250;BME280;109;19.806;-70.704;2023-02-12T02:50:53;101774.03;;;21.89;67.95
250;BME280;109;19.806;-70.704;2023-02-12T02:53:50;101766.75;;;21.96;67.45
250;BME280;109;19.806;-70.704;2023-02-12T02:56:36;101764.97;;;21.96;67.27
250;BME280;109;19.806;-70.704;2023-02-12T02:59:13;101762.56;;;21.85;67.44
250;BME280;109;19.806;-70.704;2023-02-12T03:02:17;101758.03;;;21.89;67.54
250;BME280;109;19.806;-70.704;2023-02-12T03:05:03;101762.53;;;21.87;67.43
250;BME280;109;19.806;-70.704;2023-02-12T03:07:51;101768.88;;;21.83;67.88
250;BME280;109;19.806;-70.704;2023-02-12T03:10:39;101772.41;;;21.83;67.90
250;BME280;109;19.806;-70.704;2023-02-12T03:13:20;101770.53;;;21.85;67.72
250;BME280;109;19.806;-70.704;2023-02-12T03:16:08;101770.66;;;21.82;67.60
250;BME280;109;19.806;-70.704;2023-02-12T03:18:52;101765.22;;;21.85;67.71
250;BME280;109;19.806;-70.704;2023-02-12T03:21:40;101767.19;;;21.79;67.70
250;BME280;109;19.806;-70.704;2023-02-12T03:24:23;101761.72;;;21.85;67.74
250;BME280;109;19.806;-70.704;2023-02-12T03:30:18;101756.50;;;21.80;67.88
250;BME280;109;19.806;-70.704;2023-02-12T03:35:57;101753.88;;;21.77;67.86
250;BME280;109;19.806;-70.704;2023-02-12T03:38:52;101755.66;;;21.78;67.76
250;BME280;109;19.806;-70.704;2023-02-12T03:42:00;101748.63;;;21.73;67.89
250;BME280;109;19.806;-70.704;2023-02-12T03:47:48;101751.50;;;21.65;67.62
250;BME280;109;19.806;-70.704;2023-02-12T03:50:47;101749.56;;;21.72;67.84
250;BME280;109;19.806;-70.704;2023-02-12T03:53:28;101739.88;;;21.69;67.70
250;BME280;109;19.806;-70.704;2023-02-12T03:56:11;101741.50;;;21.73;67.96
250;BME280;109;19.806;-70.704;2023-02-12T03:58:46;101740.75;;;21.70;67.40
250;BME280;109;19.806;-70.704;2023-02-12T04:01:27;101739.03;;;21.67;67.69
250;BME280;109;19.806;-70.704;2023-02-12T04:03:54;101743.28;;;21.74;67.27
250;BME280;109;19.806;-70.704;2023-02-12T04:06:34;101741.50;;;21.73;67.51
250;BME280;109;19.806;-70.704;2023-02-12T04:09:04;101742.50;;;21.71;66.82
250;BME280;109;19.806;-70.704;2023-02-12T04:12:53;101737.19;;;21.69;67.35
250;BME280;109;19.806;-70.704;2023-02-12T04:15:20;101735.16;;;21.80;67.05
250;BME280;109;19.806;-70.704;2023-02-12T04:21:18;101730.75;;;21.79;66.78
250;BME280;109;19.806;-70.704;2023-02-12T04:24:06;101717.50;;;21.76;67.06
250;BME280;109;19.806;-70.704;2023-02-12T04:26:53;101722.06;;;21.71;67.05
250;BME280;109;19.806;-70.704;2023-02-12T04:29:52;101724.56;;;21.77;67.12
250;BME280;109;19.806;-70.704;2023-02-12T04:32:42;101722.81;;;21.76;66.79
250;BME280;109;19.806;-70.704;2023-02-12T04:38:23;101722.06;;;21.71;67.15
250;BME280;109;19.806;-70.704;2023-02-12T04:41:06;101722.00;;;21.73;67.28
250;BME280;109;19.806;-70.704;2023-02-12T04:43:35;101720.38;;;21.67;67.26
250;BME280;109;19.806;-70.704;2023-02-12T04:46:16;101721.28;;;21.66;67.13
250;BME280;109;19.806;-70.704;2023-02-12T04:48:52;101719.53;;;21.65;67.51
250;BME280;109;19.806;-70.704;2023-02-12T04:51:33;101719.78;;;21.56;67.56
250;BME280;109;19.806;-70.704;2023-02-12T04:53:59;101720.56;;;21.59;67.61
250;BME280;109;19.806;-70.704;2023-02-12T04:56:40;101709.84;;;21.61;67.47
250;BME280;109;19.806;-70.704;2023-02-12T04:59:07;101709.91;;;21.59;67.33
250;BME280;109;19.806;-70.704;2023-02-12T05:01:47;101703.63;;;21.62;67.41
250;BME280;109;19.806;-70.704;2023-02-12T05:04:16;101707.13;;;21.64;67.46
250;BME280;109;19.806;-70.704;2023-02-12T05:06:56;101702.63;;;21.66;67.59
250;BME280;109;19.806;-70.704;2023-02-12T05:09:22;101699.19;;;21.61;67.69
250;BME280;109;19.806;-70.704;2023-02-12T05:12:03;101693.06;;;21.59;67.27
250;BME280;109;19.806;-70.704;2023-02-12T05:14:43;101687.78;;;21.57;67.55
250;BME280;109;19.806;-70.704;2023-02-12T05:17:09;101689.63;;;21.54;67.19
250;BME280;109;19.806;-70.704;2023-02-12T05:19:49;101686.91;;;21.57;67.73
250;BME280;109;19.806;-70.704;2023-02-12T05:22:16;101687.66;;;21.60;67.41
250;BME280;109;19.806;-70.704;2023-02-12T05:24:56;101678.00;;;21.58;67.70
250;BME280;109;19.806;-70.704;2023-02-12T05:27:22;101684.97;;;21.62;67.39
250;BME280;109;19.806;-70.704;2023-02-12T05:30:04;101673.56;;;21.57;67.45
250;BME280;109;19.806;-70.704;2023-02-12T05:32:31;101673.63;;;21.55;67.25
250;BME280;109;19.806;-70.704;2023-02-12T05:35:17;101669.22;;;21.53;67.52
250;BME280;109;19.806;-70.704;2023-02-12T05:37:57;101673.91;;;21.45;67.14
250;BME280;109;19.806;-70.704;2023-02-12T05:40:37;101663.34;;;21.40;67.32
250;BME280;109;19.806;-70.704;2023-02-12T05:43:05;101657.00;;;21.46;67.37
250;BME280;109;19.806;-70.704;2023-02-12T05:45:46;101650.84;;;21.44;67.04
250;BME280;109;19.806;-70.704;2023-02-12T05:48:13;101655.16;;;21.48;67.17
250;BME280;109;19.806;-70.704;2023-02-12T05:50:52;101658.06;;;21.39;67.29
250;BME280;109;19.806;-70.704;2023-02-12T05:53:19;101656.25;;;21.39;67.18
250;BME280;109;19.806;-70.704;2023-02-12T05:56:14;101657.22;;;21.37;67.11
250;BME280;109;19.806;-70.704;2023-02-12T05:58:51;101658.94;;;21.39;66.92
250;BME280;109;19.806;-70.704;2023-02-12T06:01:36;101655.25;;;21.45;66.65
250;BME280;109;19.806;-70.704;2023-02-12T06:04:04;101657.81;;;21.48;66.62
250;BME280;109;19.806;-70.704;2023-02-12T06:06:53;101653.31;;;21.50;66.25
250;BME280;109;19.806;-70.704;2023-02-12T06:09:27;101647.97;;;21.51;66.32
250;BME280;109;19.806;-70.704;2023-02-12T06:12:07;101647.91;;;21.53;66.64
250;BME280;109;19.806;-70.704;2023-02-12T06:14:47;101647.97;;;21.51;66.58
250;BME280;109;19.806;-70.704;2023-02-12T06:17:13;101640.72;;;21.56;66.52
250;BME280;109;19.806;-70.704;2023-02-12T06:19:53;101643.59;;;21.49;66.58
250;BME280;109;19.806;-70.704;2023-02-12T06:22:19;101640.03;;;21.48;66.45
250;BME280;109;19.806;-70.704;2023-02-12T06:24:59;101645.47;;;21.45;65.94
250;BME280;109;19.806;-70.704;2023-02-12T06:27:25;101635.59;;;21.49;66.27
250;BME280;109;19.806;-70.704;2023-02-12T06:30:05;101629.38;;;21.48;65.87
250;BME280;109;19.806;-70.704;2023-02-12T06:32:32;101635.06;;;21.35;65.85
250;BME280;109;19.806;-70.704;2023-02-12T06:35:20;101629.66;;;21.38;66.00
250;BME280;109;19.806;-70.704;2023-02-12T06:38:00;101630.47;;;21.41;65.71
250;BME280;109;19.806;-70.704;2023-02-12T06:40:40;101628.63;;;21.45;65.96
250;BME280;109;19.806;-70.704;2023-02-12T06:43:07;101619.66;;;21.47;66.11
250;BME280;109;19.806;-70.704;2023-02-12T06:45:46;101618.69;;;21.50;66.05
250;BME280;109;19.806;-70.704;2023-02-12T06:48:13;101610.88;;;21.44;65.91
250;BME280;109;19.806;-70.704;2023-02-12T06:50:53;101605.59;;;21.42;65.65
250;BME280;109;19.806;-70.704;2023-02-12T06:53:19;101609.09;;;21.44;65.62
250;BME280;109;19.806;-70.704;2023-02-12T06:56:01;101609.06;;;21.46;65.60
250;BME280;109;19.806;-70.704;2023-02-12T06:58:27;101610.88;;;21.44;65.27
250;BME280;109;19.806;-70.704;2023-02-12T07:01:19;101602.75;;;21.48;65.16
250;BME280;109;19.806;-70.704;2023-02-12T07:03:58;101606.09;;;21.56;65.19
250;BME280;109;19.806;-70.704;2023-02-12T07:06:39;101606.06;;;21.58;65.29
250;BME280;109;19.806;-70.704;2023-02-12T07:09:06;101603.47;;;21.55;65.17
250;BME280;109;19.806;-70.704;2023-02-12T07:11:45;101604.22;;;21.60;64.62
250;BME280;109;19.806;-70.704;2023-02-12T07:14:15;101600.63;;;21.61;64.80
250;BME280;109;19.806;-70.704;2023-02-12T07:16:55;101609.38;;;21.66;64.94
250;BME280;109;19.806;-70.704;2023-02-12T07:19:22;101602.28;;;21.67;64.92
250;BME280;109;19.806;-70.704;2023-02-12T07:22:03;101606.88;;;21.60;65.02
250;BME280;109;19.806;-70.704;2023-02-12T07:24:50;101607.81;;;21.59;64.75
250;BME280;109;19.806;-70.704;2023-02-12T07:27:23;101606.09;;;21.56;64.92
250;BME280;109;19.806;-70.704;2023-02-12T07:30:04;101614.97;;;21.57;64.97
250;BME280;109;19.806;-70.704;2023-02-12T07:32:32;101613.19;;;21.57;64.90
250;BME280;109;19.806;-70.704;2023-02-12T07:35:18;101614.13;;;21.55;65.09
250;BME280;109;19.806;-70.704;2023-02-12T07:37:58;101611.53;;;21.52;65.00
250;BME280;109;19.806;-70.704;2023-02-12T07:40:39;101607.06;;;21.54;64.72
250;BME280;109;19.806;-70.704;2023-02-12T07:43:05;101611.53;;;21.52;65.16
250;BME280;109;19.806;-70.704;2023-02-12T07:45:45;101608.81;;;21.55;64.71
250;BME280;109;19.806;-70.704;2023-02-12T07:48:11;101607.13;;;21.51;64.91
250;BME280;109;19.806;-70.704;2023-02-12T07:50:51;101597.56;;;21.44;65.01
250;BME280;109;19.806;-70.704;2023-02-12T07:53:17;101595.81;;;21.43;64.88
250;BME280;109;19.806;-70.704;2023-02-12T07:56:28;101594.97;;;21.41;65.06
250;BME280;109;19.806;-70.704;2023-02-12T07:59:10;101590.53;;;21.41;65.34
250;BME280;109;19.806;-70.704;2023-02-12T08:01:52;101594.00;;;21.45;65.06
250;BME280;109;19.806;-70.704;2023-02-12T08:04:21;101593.97;;;21.46;64.75
250;BME280;109;19.806;-70.704;2023-02-12T08:07:01;101589.56;;;21.44;64.92
250;BME280;109;19.806;-70.704;2023-02-12T08:09:28;101586.88;;;21.45;64.97
250;BME280;109;19.806;-70.704;2023-02-12T08:12:09;101595.66;;;21.47;64.96
250;BME280;109;19.806;-70.704;2023-02-12T08:14:49;101588.84;;;21.37;65.00
250;BME280;109;19.806;-70.704;2023-02-12T08:17:15;101578.19;;;21.37;65.37
250;BME280;109;19.806;-70.704;2023-02-12T08:19:55;101579.00;;;21.41;65.54
250;BME280;109;19.806;-70.704;2023-02-12T08:22:21;101577.41;;;21.34;65.36
250;BME280;109;19.806;-70.704;2023-02-12T08:25:08;101578.19;;;21.37;65.47
250;BME280;109;19.806;-70.704;2023-02-12T08:27:42;101561.41;;;21.34;65.41
250;BME280;109;19.806;-70.704;2023-02-12T08:30:23;101571.13;;;21.36;65.29
250;BME280;109;19.806;-70.704;2023-02-12T08:32:49;101564.84;;;21.39;65.38
250;BME280;109;19.806;-70.704;2023-02-12T08:35:37;101562.38;;;21.33;65.18
250;BME280;109;19.806;-70.704;2023-02-12T08:38:16;101558.75;;;21.34;65.22
250;BME280;109;19.806;-70.704;2023-02-12T08:41:00;101561.28;;;21.40;64.79
250;BME280;109;19.806;-70.704;2023-02-12T08:43:33;101564.69;;;21.45;64.64
250;BME280;109;19.806;-70.704;2023-02-12T08:46:17;101563.84;;;21.43;64.84
250;BME280;109;19.806;-70.704;2023-02-12T08:48:56;101560.25;;;21.45;64.68
250;BME280;109;19.806;-70.704;2023-02-12T08:51:39;101570.94;;;21.44;64.53
250;BME280;109;19.806;-70.704;2023-02-12T08:54:12;101560.25;;;21.45;64.58
250;BME280;109;19.806;-70.704;2023-02-12T08:56:57;101559.38;;;21.45;64.50
250;BME280;109;19.806;-70.704;2023-02-12T08:59:30;101568.16;;;21.47;64.16
250;BME280;109;19.806;-70.704;2023-02-12T09:02:11;101568.16;;;21.47;64.58
250;BME280;109;19.806;-70.704;2023-02-12T09:04:51;101572.69;;;21.45;64.21
250;BME280;109;19.806;-70.704;2023-02-12T09:07:18;101577.16;;;21.43;64.32
250;BME280;109;19.806;-70.704;2023-02-12T09:09:57;101574.44;;;21.46;63.99
250;BME280;109;19.806;-70.704;2023-02-12T09:12:24;101579.88;;;21.41;64.33
250;BME280;109;19.806;-70.704;2023-02-12T09:15:03;101573.81;;;21.35;64.24
250;BME280;109;19.806;-70.704;2023-02-12T09:17:30;101574.69;;;21.35;64.35
250;BME280;109;19.806;-70.704;2023-02-12T09:20:10;101577.31;;;21.37;64.05
250;BME280;109;19.806;-70.704;2023-02-12T09:22:37;101565.97;;;21.30;64.41
250;BME280;109;19.806;-70.704;2023-02-12T09:25:24;101570.47;;;21.28;64.12
250;BME280;109;19.806;-70.704;2023-02-12T09:27:57;101570.53;;;21.25;64.57
250;BME280;109;19.806;-70.704;2023-02-12T09:30:38;101573.19;;;21.25;64.59
250;BME280;109;19.806;-70.704;2023-02-12T09:33:06;101570.44;;;21.30;64.54
250;BME280;109;19.806;-70.704;2023-02-12T09:35:54;101577.69;;;21.23;64.52
250;BME280;109;19.806;-70.704;2023-02-12T09:38:27;101572.31;;;21.24;64.51
250;BME280;109;19.806;-70.704;2023-02-12T09:41:16;101582.97;;;21.24;64.14
250;BME280;109;19.806;-70.704;2023-02-12T09:47:02;101595.63;;;21.16;64.61
250;BME280;109;19.806;-70.704;2023-02-12T09:52:23;101601.16;;;21.07;64.46
250;BME280;109;19.806;-70.704;2023-02-12T09:55:05;101594.06;;;21.06;64.27
250;BME280;109;19.806;-70.704;2023-02-12T09:57:36;101594.88;;;21.08;64.03
250;BME280;109;19.806;-70.704;2023-02-12T10:00:27;101597.47;;;21.11;64.11
250;BME280;109;19.806;-70.704;2023-02-12T10:03:04;101608.13;;;21.11;64.25
250;BME280;109;19.806;-70.704;2023-02-12T10:06:02;101596.59;;;21.11;64.18
250;BME280;109;19.806;-70.704;2023-02-12T10:08:46;101596.81;;;21.03;64.30
250;BME280;109;19.806;-70.704;2023-02-12T10:27:15;101614.66;;;20.98;65.28
250;BME280;109;19.806;-70.704;2023-02-12T10:29:56;101612.91;;;20.97;65.29
250;BME280;109;19.806;-70.704;2023-02-12T10:32:37;101623.44;;;21.02;65.25
250;BME280;109;19.806;-70.704;2023-02-12T10:35:15;101620.75;;;21.03;65.29
250;BME280;109;19.806;-70.704;2023-02-12T10:37:57;101633.19;;;21.03;65.10
250;BME280;109;19.806;-70.704;2023-02-12T10:40:33;101636.69;;;21.05;64.74
250;BME280;109;19.806;-70.704;2023-02-12T10:43:02;101640.28;;;21.02;65.17
250;BME280;109;19.806;-70.704;2023-02-12T10:45:35;101642.03;;;21.03;65.05
250;BME280;109;19.806;-70.704;2023-02-12T10:48:09;101642.03;;;21.03;64.85
250;BME280;109;19.806;-70.704;2023-02-12T10:53:35;101656.25;;;21.02;64.93
250;BME280;109;19.806;-70.704;2023-02-12T10:58:32;101650.75;;;21.10;64.45
250;BME280;109;19.806;-70.704;2023-02-12T11:01:00;101655.31;;;21.05;64.85
250;BME280;109;19.806;-70.704;2023-02-12T11:03:31;101658.94;;;21.02;64.73
250;BME280;109;19.806;-70.704;2023-02-12T11:08:42;101668.63;;;21.05;64.10
250;BME280;109;19.806;-70.704;2023-02-12T11:11:13;101674.81;;;21.07;64.23
250;BME280;109;19.806;-70.704;2023-02-12T11:13:53;101670.28;;;21.09;63.69
250;BME280;109;19.806;-70.704;2023-02-12T11:16:37;101674.81;;;21.07;63.86
250;BME280;109;19.806;-70.704;2023-02-12T11:19:23;101672.88;;;21.12;63.75
250;BME280;109;19.806;-70.704;2023-02-12T11:22:05;101677.34;;;21.11;63.81
250;BME280;109;19.806;-70.704;2023-02-12T11:24:35;101680.88;;;21.13;63.47
250;BME280;109;19.806;-70.704;2023-02-12T11:27:27;101682.63;;;21.14;62.92
250;BME280;109;19.806;-70.704;2023-02-12T11:30:24;101683.50;;;21.15;63.16
250;BME280;109;19.806;-70.704;2023-02-12T11:32:51;101683.50;;;21.15;63.32
250;BME280;109;19.806;-70.704;2023-02-12T11:35:23;101683.44;;;21.18;63.39
250;BME280;109;19.806;-70.704;2023-02-12T11:37:56;101686.84;;;21.23;62.88
250;BME280;109;19.806;-70.704;2023-02-12T11:40:27;101679.66;;;21.27;62.91
250;BME280;109;19.806;-70.704;2023-02-12T11:42:59;101673.34;;;21.31;62.77
250;BME280;109;19.806;-70.704;2023-02-12T11:45:44;101681.34;;;21.31;63.20
250;BME280;109;19.806;-70.704;2023-02-12T11:48:24;101679.44;;;21.36;63.04
250;BME280;109;19.806;-70.704;2023-02-12T11:50:53;101677.63;;;21.36;62.74
250;BME280;109;19.806;-70.704;2023-02-12T11:53:26;101670.41;;;21.41;63.05
250;BME280;109;19.806;-70.704;2023-02-12T11:56:06;101677.28;;;21.50;62.33
250;BME280;109;19.806;-70.704;2023-02-12T11:58:33;101676.44;;;21.48;62.43
250;BME280;109;19.806;-70.704;2023-02-12T12:01:04;101678.97;;;21.54;62.00
250;BME280;109;19.806;-70.704;2023-02-12T12:09:42;101687.31;;;21.74;61.72
250;BME280;109;19.806;-70.704;2023-02-12T12:13:05;101688.69;;;21.90;61.42
250;BME280;109;19.806;-70.704;2023-02-12T12:18:23;101693.72;;;22.01;60.88
250;BME280;109;19.806;-70.704;2023-02-12T12:24:01;101697.66;;;22.20;60.61
250;BME280;109;19.806;-70.704;2023-02-12T12:26:31;101696.34;;;22.35;60.77
250;BME280;109;19.806;-70.704;2023-02-12T12:31:41;101695.34;;;22.38;60.19
250;BME280;109;19.806;-70.704;2023-02-12T12:34:15;101695.91;;;22.50;60.04
250;BME280;109;19.806;-70.704;2023-02-12T12:37:04;101686.78;;;22.59;59.75
250;BME280;109;19.806;-70.704;2023-02-12T12:39:59;101696.94;;;22.76;59.90
250;BME280;109;19.806;-70.704;2023-02-12T12:58:28;101699.53;;;23.34;58.70
250;BME280;109;19.806;-70.704;2023-02-12T13:01:21;101707.19;;;23.45;58.55
250;BME280;109;19.806;-70.704;2023-02-12T13:04:11;101706.22;;;23.48;58.57
250;BME280;109;19.806;-70.704;2023-02-12T13:15:40;101706.72;;;23.85;58.11
250;BME280;109;19.806;-70.704;2023-02-12T13:24:34;101710.22;;;24.12;57.57
250;BME280;109;19.806;-70.704;2023-02-12T13:27:07;101720.56;;;24.23;57.71
250;BME280;109;19.806;-70.704;2023-02-12T13:29:41;101723.56;;;24.38;57.64
250;BME280;109;19.806;-70.704;2023-02-12T13:32:26;101729.44;;;24.48;57.38
250;BME280;109;19.806;-70.704;2023-02-12T13:34:55;101729.56;;;24.20;57.07
250;BME280;109;19.806;-70.704;2023-02-12T13:37:44;101728.31;;;24.30;56.75
250;BME280;109;19.806;-70.704;2023-02-12T13:40:22;101730.66;;;24.39;56.57
250;BME280;109;19.806;-70.704;2023-02-12T13:51:35;101740.03;;;24.51;56.96
250;BME280;109;19.806;-70.704;2023-02-12T13:56:45;101742.53;;;24.56;56.42
250;BME280;109;19.806;-70.704;2023-02-12T14:04:59;101746.41;;;24.95;55.68
250;BME280;109;19.806;-70.704;2023-02-12T14:08:00;101744.16;;;25.06;56.16
250;BME280;109;19.806;-70.704;2023-02-12T14:10:37;101739.28;;;25.39;55.40
250;BME280;109;19.806;-70.704;2023-02-12T14:13:21;101736.13;;;25.28;55.14
250;BME280;109;19.806;-70.704;2023-02-12T14:15:53;101740.91;;;25.43;53.96
250;BME280;109;19.806;-70.704;2023-02-12T14:18:37;101736.88;;;25.33;54.21
250;BME280;109;19.806;-70.704;2023-02-12T14:23:44;101739.47;;;25.35;54.48
250;BME280;109;19.806;-70.704;2023-02-12T14:26:14;101739.34;;;25.60;54.33
250;BME280;109;19.806;-70.704;2023-02-12T14:29:02;101743.19;;;25.74;53.29
250;BME280;109;19.806;-70.704;2023-02-12T14:31:36;101743.09;;;25.76;54.11
250;BME280;109;19.806;-70.704;2023-02-12T14:41:48;101742.53;;;25.24;54.83
250;BME280;109;19.806;-70.704;2023-02-12T14:46:54;101741.81;;;25.21;55.57
250;BME280;109;19.806;-70.704;2023-02-12T14:49:43;101735.13;;;25.32;55.63
250;BME280;109;19.806;-70.704;2023-02-12T14:54:43;101728.09;;;25.72;52.99
250;BME280;109;19.806;-70.704;2023-02-12T14:59:47;101725.50;;;25.91;53.02
250;BME280;109;19.806;-70.704;2023-02-12T15:02:23;101724.78;;;25.87;52.72
250;BME280;109;19.806;-70.704;2023-02-12T15:04:53;101725.72;;;25.86;53.35
250;BME280;109;19.806;-70.704;2023-02-12T15:07:36;101715.66;;;25.91;53.38
250;BME280;109;19.806;-70.704;2023-02-12T15:10:12;101710.13;;;26.35;53.34
250;BME280;109;19.806;-70.704;2023-02-12T15:15:51;101705.00;;;26.68;51.13
250;BME280;109;19.806;-70.704;2023-02-12T15:18:53;101707.31;;;26.38;50.60
250;BME280;109;19.806;-70.704;2023-02-12T15:21:25;101692.81;;;26.22;51.53
250;BME280;109;19.806;-70.704;2023-02-12T15:24:11;101697.78;;;26.31;51.02
250;BME280;109;19.806;-70.704;2023-02-12T15:26:46;101704.94;;;26.11;52.15
250;BME280;109;19.806;-70.704;2023-02-12T15:31:49;101692.41;;;26.51;52.16
250;BME280;109;19.806;-70.704;2023-02-12T15:34:20;101689.13;;;26.63;51.12
250;BME280;109;19.806;-70.704;2023-02-12T15:36:47;101689.19;;;26.43;52.33
250;BME280;109;19.806;-70.704;2023-02-12T15:39:18;101683.88;;;26.41;51.31
250;BME280;109;19.806;-70.704;2023-02-12T15:41:48;101675.16;;;26.36;51.50
250;BME280;109;19.806;-70.704;2023-02-12T15:44:28;101672.00;;;26.47;51.78
250;BME280;109;19.806;-70.704;2023-02-12T15:47:01;101672.66;;;26.52;52.50
250;BME280;109;19.806;-70.704;2023-02-12T15:49:35;101667.84;;;26.40;51.32
250;BME280;109;19.806;-70.704;2023-02-12T15:52:16;101663.44;;;26.00;52.84
250;BME280;109;19.806;-70.704;2023-02-12T15:54:45;101657.38;;;25.95;52.85
250;BME280;109;19.806;-70.704;2023-02-12T15:57:21;101652.00;;;25.74;53.55
250;BME280;109;19.806;-70.704;2023-02-12T15:59:54;101648.97;;;26.02;54.21
250;BME280;109;19.806;-70.704;2023-02-12T16:02:26;101644.34;;;26.45;53.96
250;BME280;109;19.806;-70.704;2023-02-12T16:04:57;101639.41;;;26.55;53.43
250;BME280;109;19.806;-70.704;2023-02-12T16:07:26;101644.56;;;26.01;54.33
250;BME280;109;19.806;-70.704;2023-02-12T16:09:55;101631.56;;;25.72;55.48
250;BME280;109;19.806;-70.704;2023-02-12T16:12:24;101634.38;;;25.49;56.32
250;BME280;109;19.806;-70.704;2023-02-12T16:14:54;101629.47;;;25.58;56.58
250;BME280;109;19.806;-70.704;2023-02-12T16:17:34;101621.91;;;25.68;57.50
250;BME280;109;19.806;-70.704;2023-02-12T16:20:26;101621.69;;;25.32;58.29
250;BME280;109;19.806;-70.704;2023-02-12T16:22:50;101622.38;;;25.15;59.34
250;BME280;109;19.806;-70.704;2023-02-12T16:25:29;101612.00;;;25.28;58.97
250;BME280;109;19.806;-70.704;2023-02-12T16:28:04;101622.34;;;25.77;57.93
250;BME280;109;19.806;-70.704;2023-02-12T16:30:41;101611.84;;;25.53;57.37
250;BME280;109;19.806;-70.704;2023-02-12T16:33:31;101610.25;;;25.27;59.27
250;BME280;109;19.806;-70.704;2023-02-12T16:38:48;101606.00;;;25.01;60.11